Time;durP1;ratioP1;P1;durP2;ratioP2;P2;SDS_P1;SDS_P2;PMS_P1;PMS_P2;Temp;Humidity;BMP_temperature;BMP_pressure;BME280_temperature;BME280_humidity;BME280_pressure;Samples;Min_cycle;Max_cycle;Signal;HPM_P1;HPM_P2
2021/11/19 00:01:57;;;;;;;9.00;5.53;;;11.00;1.00;;;;;;5051019;28;20461;-59
2021/11/19 00:04:24;;;;;;;15.27;6.60;;;10.90;1.00;;;;;;5048367;28;20469;-60
2021/11/19 00:06:51;;;;;;;8.67;5.93;;;10.80;1.00;;;;;;5049598;28;20830;-58
2021/11/19 00:09:17;;;;;;;14.43;7.10;;;;;;;;;;5048491;28;20469;-59
2021/11/19 00:11:45;;;;;;;9.87;6.73;;;10.70;1.00;;;;;;5051988;28;20427;-58
2021/11/19 00:14:11;;;;;;;10.00;6.10;;;;;;;;;;5050338;28;20443;-59
2021/11/19 00:16:40;;;;;;;12.17;6.33;;;10.70;1.00;;;;;;5049047;28;20459;-60
2021/11/19 00:19:06;;;;;;;12.00;5.87;;;10.70;1.00;;;;;;5051791;28;20444;-59
2021/11/19 00:21:34;;;;;;;12.10;5.80;;;10.70;1.00;;;;;;5051903;28;20447;-58
2021/11/19 00:24:00;;;;;;;13.43;7.40;;;10.70;1.00;;;;;;5050186;28;20211;-59
2021/11/19 00:26:26;;;;;;;10.80;6.40;;;10.60;1.00;;;;;;5050159;28;20479;-58
2021/11/19 00:28:53;;;;;;;17.30;7.07;;;10.70;1.00;;;;;;5051777;28;20184;-60
2021/11/19 00:31:19;;;;;;;8.93;5.80;;;10.80;1.00;;;;;;5049170;28;20438;-59
2021/11/19 00:33:46;;;;;;;11.10;6.37;;;10.80;1.00;;;;;;5049722;28;20447;-60
2021/11/19 00:36:15;;;;;;;10.43;5.50;;;;;;;;;;5049082;28;20450;-59
2021/11/19 00:38:42;;;;;;;14.60;6.13;;;10.80;1.00;;;;;;5049771;28;20447;-58
2021/11/19 00:41:09;;;;;;;9.10;5.33;;;10.80;1.00;;;;;;5050053;28;20449;-58
2021/11/19 00:43:35;;;;;;;8.73;5.20;;;;;;;;;;5050276;28;20542;-61
2021/11/19 00:46:02;;;;;;;7.73;5.73;;;10.90;1.00;;;;;;5050034;28;20532;-59
2021/11/19 00:48:31;;;;;;;8.80;5.60;;;10.80;1.00;;;;;;5050121;28;20538;-59
2021/11/19 00:51:23;;;;;;;12.80;6.00;;;11.00;1.00;;;;;;5050850;28;20449;-59
2021/11/19 00:53:51;;;;;;;10.57;6.00;;;10.80;1.00;;;;;;5051215;28;20421;-59
2021/11/19 00:56:20;;;;;;;9.40;6.20;;;10.80;1.00;;;;;;5051097;28;20439;-58
2021/11/19 00:58:48;;;;;;;6.57;5.50;;;10.80;1.00;;;;;;5051112;28;20450;-59
2021/11/19 01:01:19;;;;;;;8.63;5.20;;;11.00;1.00;;;;;;5050684;28;20455;-58
2021/11/19 01:03:45;;;;;;;12.23;6.37;;;;;;;;;;5045856;28;20915;-59
2021/11/19 01:06:12;;;;;;;13.07;5.50;;;10.80;1.00;;;;;;5046891;28;21862;-59
2021/11/19 01:08:38;;;;;;;12.27;5.60;;;10.70;1.00;;;;;;5049420;28;20513;-59
2021/11/19 01:11:07;;;;;;;8.20;4.70;;;10.90;1.00;;;;;;5050028;28;20443;-58
2021/11/19 01:13:34;;;;;;;12.13;4.40;;;11.10;1.00;;;;;;5049818;28;20501;-58
2021/11/19 01:16:05;;;;;;;6.73;5.27;;;11.10;1.00;;;;;;5046806;28;20859;-59
2021/11/19 01:18:41;;;;;;;10.50;5.63;;;11.00;1.00;;;;;;5049853;28;20424;-59
2021/11/19 01:21:15;;;;;;;8.53;5.97;;;10.80;1.00;;;;;;5046290;28;20442;-59
2021/11/19 01:23:42;;;;;;;8.00;5.50;;;11.10;1.00;;;;;;5049015;28;20941;-58
2021/11/19 01:26:13;;;;;;;7.30;5.30;;;10.80;1.00;;;;;;5050193;28;20459;-59
2021/11/19 01:28:40;;;;;;;8.47;5.10;;;11.20;1.00;;;;;;5050488;28;20409;-58
2021/11/19 01:31:20;;;;;;;7.30;5.30;;;11.10;1.00;;;;;;5048746;28;20941;-59
2021/11/19 01:33:48;;;;;;;13.57;7.10;;;;;;;;;;5049196;28;20457;-59
2021/11/19 01:36:16;;;;;;;11.70;6.23;;;11.00;1.00;;;;;;5049721;28;20431;-59
2021/11/19 01:38:43;;;;;;;8.80;5.90;;;11.00;1.00;;;;;;5047788;28;20953;-60
2021/11/19 01:41:20;;;;;;;7.87;5.43;;;11.10;1.00;;;;;;5047190;28;20718;-59
2021/11/19 01:43:47;;;;;;;16.23;5.80;;;10.70;1.00;;;;;;5047347;28;20493;-59
2021/11/19 01:46:18;;;;;;;7.37;5.90;;;11.10;1.00;;;;;;5048865;28;20453;-59
2021/11/19 01:48:46;;;;;;;6.87;6.13;;;11.30;1.00;;;;;;5047178;28;21030;-59
2021/11/19 01:51:36;;;;;;;8.40;6.50;;;10.90;1.00;;;;;;5047474;28;20454;-59
2021/11/19 01:54:24;;;;;;;10.87;6.07;;;10.90;1.00;;;;;;5050159;28;20514;-59
2021/11/19 01:56:56;;;;;;;12.73;5.10;;;11.00;1.00;;;;;;5048296;28;20471;-57
2021/11/19 01:59:25;;;;;;;9.33;5.53;;;10.80;1.00;;;;;;5049801;28;20508;-58
2021/11/19 02:01:58;;;;;;;9.80;6.07;;;11.10;1.00;;;;;;5049590;28;20460;-58
2021/11/19 02:04:37;;;;;;;8.20;6.03;;;10.60;1.00;;;;;;5048442;28;20948;-60
2021/11/19 02:07:08;;;;;;;8.20;6.00;;;10.90;1.00;;;;;;5045682;28;20512;-59
2021/11/19 02:09:34;;;;;;;8.13;5.97;;;11.20;1.00;;;;;;5041066;28;20947;-58
2021/11/19 02:12:19;;;;;;;10.30;5.87;;;11.00;1.00;;;;;;5047957;28;20422;-59
2021/11/19 02:15:13;;;;;;;6.87;5.60;;;11.10;1.00;;;;;;5049342;28;20212;-59
2021/11/19 02:17:40;;;;;;;9.23;5.80;;;10.80;1.00;;;;;;5045575;28;20482;-59
2021/11/19 02:20:11;;;;;;;8.30;5.80;;;11.10;1.00;;;;;;5047173;28;20877;-60
2021/11/19 02:22:42;;;;;;;7.03;6.03;;;11.10;1.00;;;;;;5049214;28;20457;-60
2021/11/19 02:25:23;;;;;;;9.97;6.37;;;11.00;1.00;;;;;;5048315;28;20919;-59
2021/11/19 02:27:53;;;;;;;11.60;6.80;;;11.00;1.00;;;;;;5047757;28;20454;-59
2021/11/19 02:30:25;;;;;;;9.57;5.37;;;11.40;1.00;;;;;;5046094;28;20450;-59
2021/11/19 02:32:57;;;;;;;10.10;5.93;;;11.10;1.00;;;;;;5047272;28;20452;-59
2021/11/19 02:35:28;;;;;;;9.50;6.00;;;11.80;1.00;;;;;;5049463;28;20873;-58
2021/11/19 02:37:58;;;;;;;7.23;5.30;;;11.00;1.00;;;;;;5050016;28;20446;-60
2021/11/19 02:40:30;;;;;;;13.60;6.50;;;11.10;1.00;;;;;;5048206;28;20950;-59
2021/11/19 02:43:00;;;;;;;8.10;5.23;;;11.20;1.00;;;;;;5049116;28;20534;-60
2021/11/19 02:45:33;;;;;;;10.03;5.60;;;11.70;1.00;;;;;;5048360;28;20448;-59
2021/11/19 02:47:59;;;;;;;9.60;6.30;;;;;;;;;;5048285;28;20477;-60
2021/11/19 02:50:25;;;;;;;8.90;5.93;;;;;;;;;;5047017;28;20807;-59
2021/11/19 02:52:55;;;;;;;9.20;6.30;;;11.00;1.00;;;;;;5048102;28;20443;-58
2021/11/19 02:55:30;;;;;;;10.80;6.00;;;11.00;1.00;;;;;;5053993;28;20442;-59
2021/11/19 02:57:56;;;;;;;13.03;5.47;;;10.90;1.00;;;;;;5053108;28;20754;-59
2021/11/19 03:00:26;;;;;;;8.90;5.60;;;11.00;1.00;;;;;;5053385;28;20442;-59
2021/11/19 03:02:52;;;;;;;6.93;5.60;;;11.00;1.00;;;;;;5050732;28;20705;-59
2021/11/19 03:05:20;;;;;;;16.03;6.73;;;11.10;1.00;;;;;;5051026;28;20425;-58
2021/11/19 03:07:46;;;;;;;9.93;6.30;;;;;;;;;;5052286;28;20486;-58
2021/11/19 03:10:37;;;;;;;9.57;5.77;;;11.00;1.00;;;;;;5052381;28;20955;-58
2021/11/19 03:13:05;;;;;;;9.77;5.53;;;10.70;1.00;;;;;;5052925;28;20426;-58
2021/11/19 03:15:32;;;;;;;10.20;5.70;;;;;;;;;;5050920;28;20450;-59
2021/11/19 03:17:58;;;;;;;6.23;5.40;;;11.20;1.00;;;;;;5052651;28;20500;-59
2021/11/19 03:20:25;;;;;;;11.50;5.80;;;11.00;1.00;;;;;;5052933;28;20442;-58
2021/11/19 03:22:53;;;;;;;7.37;6.10;;;11.20;1.00;;;;;;5052899;28;20417;-58
2021/11/19 03:25:23;;;;;;;8.27;6.10;;;11.20;1.00;;;;;;5052689;28;20454;-58
2021/11/19 03:27:49;;;;;;;11.77;6.17;;;11.20;1.00;;;;;;5049580;28;20455;-58
2021/11/19 03:30:17;;;;;;;8.47;5.90;;;11.40;1.00;;;;;;5051653;28;21030;-58
2021/11/19 03:32:44;;;;;;;10.53;6.60;;;11.00;1.00;;;;;;5052656;28;20195;-59
2021/11/19 03:35:14;;;;;;;7.50;5.90;;;11.10;1.00;;;;;;5050027;28;20543;-59
2021/11/19 03:37:44;;;;;;;9.87;6.27;;;10.90;1.00;;;;;;5051606;28;20439;-58
2021/11/19 03:40:12;;;;;;;7.90;5.57;;;10.90;1.00;;;;;;5047109;28;20446;-59
2021/11/19 03:42:38;;;;;;;8.00;6.80;;;;;;;;;;5050084;28;20438;-59
2021/11/19 03:45:07;;;;;;;8.90;5.90;;;11.00;1.00;;;;;;5050029;28;20848;-58
2021/11/19 03:47:38;;;;;;;7.87;6.40;;;11.00;1.00;;;;;;5051677;28;20474;-59
2021/11/19 03:50:17;;;;;;;10.40;7.00;;;10.90;1.00;;;;;;5047045;28;20986;-59
2021/11/19 03:52:45;;;;;;;8.20;6.07;;;11.10;1.00;;;;;;5054611;28;20469;-59
2021/11/19 03:55:18;;;;;;;10.70;5.80;;;11.10;1.00;;;;;;5054150;28;20508;-60
2021/11/19 03:57:44;;;;;;;8.57;6.83;;;;;;;;;;5040862;28;20529;-58
2021/11/19 04:00:15;;;;;;;7.17;6.47;;;11.10;1.00;;;;;;5043683;28;20954;-58
2021/11/19 04:02:41;;;;;;;8.80;7.10;;;;;;;;;;5050604;28;20478;-57
2021/11/19 04:05:08;;;;;;;11.53;6.13;;;;;;;;;;5048685;28;20492;-58
2021/11/19 04:07:34;;;;;;;7.30;6.23;;;;;;;;;;5050989;28;20477;-59
2021/11/19 04:09:59;;;;;;;10.33;6.33;;;;;;;;;;5047464;28;20451;-59
2021/11/19 04:12:26;;;;;;;10.67;6.67;;;11.10;1.00;;;;;;5048826;28;20447;-59
2021/11/19 04:14:53;;;;;;;12.53;6.30;;;11.20;1.00;;;;;;5048619;28;20453;-58
2021/11/19 04:17:18;;;;;;;7.40;6.70;;;11.00;1.00;;;;;;5050872;28;20521;-59
2021/11/19 04:19:46;;;;;;;10.23;7.20;;;;;;;;;;5049916;28;20951;-59
2021/11/19 04:22:15;;;;;;;8.77;6.77;;;11.00;1.00;;;;;;5048185;28;20447;-58
2021/11/19 04:24:45;;;;;;;9.60;6.67;;;11.00;1.00;;;;;;5049596;28;20489;-58
2021/11/19 04:27:12;;;;;;;10.53;8.17;;;11.00;1.00;;;;;;5047670;28;20478;-58
2021/11/19 04:29:38;;;;;;;9.90;8.10;;;12.10;1.00;;;;;;5049674;28;20446;-57
2021/11/19 04:32:05;;;;;;;9.40;7.23;;;11.20;1.00;;;;;;5051359;28;20435;-58
2021/11/19 04:34:31;;;;;;;8.33;7.43;;;;;;;;;;5038374;28;20502;-57
2021/11/19 04:36:57;;;;;;;13.10;7.73;;;;;;;;;;5044218;28;20418;-58
2021/11/19 04:39:23;;;;;;;11.33;7.70;;;;;;;;;;5047175;28;20458;-58
2021/11/19 04:41:49;;;;;;;9.80;7.97;;;11.10;1.00;;;;;;5046084;28;20470;-59
2021/11/19 04:44:16;;;;;;;8.43;7.37;;;11.10;1.00;;;;;;5047209;28;20421;-59
2021/11/19 04:46:42;;;;;;;11.63;7.70;;;11.20;1.00;;;;;;5013431;28;1042416;-59
2021/11/19 04:49:09;;;;;;;8.83;7.10;;;11.20;1.00;;;;;;5050484;28;20193;-57
2021/11/19 04:51:37;;;;;;;9.27;8.13;;;11.10;1.00;;;;;;5049038;28;20451;-58
2021/11/19 04:54:04;;;;;;;7.97;7.00;;;;;;;;;;5050081;28;20820;-58
2021/11/19 04:56:30;;;;;;;11.20;7.77;;;;;;;;;;5050144;28;20458;-59
2021/11/19 04:58:56;;;;;;;10.17;7.57;;;12.10;1.00;;;;;;5051412;28;20469;-57
2021/11/19 05:01:29;;;;;;;10.93;8.17;;;11.30;1.00;;;;;;5045565;28;20546;-58
2021/11/19 05:03:55;;;;;;;10.43;8.17;;;11.40;1.00;;;;;;5051049;28;20418;-59
2021/11/19 05:06:20;;;;;;;12.77;8.77;;;11.30;1.00;;;;;;5048805;28;20481;-58
2021/11/19 05:08:46;;;;;;;12.47;7.30;;;;;;;;;;5050223;28;20421;-59
2021/11/19 05:11:18;;;;;;;10.17;7.40;;;;;;;;;;5048631;28;20189;-59
2021/11/19 05:13:44;;;;;;;11.90;8.00;;;11.40;1.00;;;;;;5056640;28;20493;-59
2021/11/19 05:16:12;;;;;;;8.30;7.20;;;11.40;1.00;;;;;;5048388;28;20455;-59
2021/11/19 05:18:39;;;;;;;8.97;7.40;;;;;;;;;;5049834;28;20847;-60
2021/11/19 05:21:07;;;;;;;9.73;7.70;;;11.20;1.00;;;;;;5050406;28;20939;-62
2021/11/19 05:23:33;;;;;;;10.13;7.30;;;;;;;;;;5049522;28;20417;-60
2021/11/19 05:26:00;;;;;;;9.50;7.40;;;;;;;;;;5050334;28;20774;-61
2021/11/19 05:28:26;;;;;;;11.60;7.17;;;11.40;1.00;;;;;;5053858;28;20476;-61
2021/11/19 05:30:52;;;;;;;12.50;7.07;;;;;;;;;;5050465;28;20474;-62
2021/11/19 05:33:21;;;;;;;11.40;7.97;;;11.40;1.00;;;;;;5051083;28;20439;-61
2021/11/19 05:35:47;;;;;;;9.87;8.10;;;11.70;1.00;;;;;;5049501;28;20533;-63
2021/11/19 05:38:13;;;;;;;9.00;7.33;;;11.70;1.00;;;;;;5049397;28;20447;-61
2021/11/19 05:40:39;;;;;;;9.80;7.13;;;;;;;;;;5049303;28;20789;-62
2021/11/19 05:43:05;;;;;;;8.30;6.70;;;11.50;1.00;;;;;;5049064;28;20479;-62
2021/11/19 05:45:32;;;;;;;9.40;7.60;;;;;;;;;;5049162;28;20454;-61
2021/11/19 05:47:58;;;;;;;10.43;6.40;;;;;;;;;;5049845;28;20582;-60
2021/11/19 05:50:27;;;;;;;18.50;8.00;;;11.50;1.00;;;;;;5049749;28;20435;-59
2021/11/19 05:52:57;;;;;;;9.33;7.23;;;;;;;;;;5050362;28;20433;-59
2021/11/19 05:55:24;;;;;;;10.03;6.83;;;11.30;1.00;;;;;;5049763;28;20584;-60
2021/11/19 05:57:50;;;;;;;10.53;7.60;;;11.40;1.00;;;;;;5049116;28;20948;-59
2021/11/19 06:00:20;;;;;;;9.70;6.63;;;11.30;1.00;;;;;;5049541;28;20431;-60
2021/11/19 06:02:46;;;;;;;9.50;6.87;;;;;;;;;;5049473;28;20263;-59
2021/11/19 06:05:12;;;;;;;11.33;7.90;;;;;;;;;;5049786;28;20443;-60
2021/11/19 06:07:39;;;;;;;10.43;7.50;;;11.40;1.00;;;;;;5050026;28;20463;-61
2021/11/19 06:10:07;;;;;;;9.23;6.60;;;11.40;1.00;;;;;;5049490;28;20971;-60
2021/11/19 06:12:39;;;;;;;12.63;7.00;;;11.80;1.00;;;;;;5049157;28;20447;-60
2021/11/19 06:15:11;;;;;;;10.63;7.83;;;11.60;1.00;;;;;;5049850;28;20439;-60
2021/11/19 06:17:40;;;;;;;9.33;6.90;;;11.40;1.00;;;;;;5049103;28;20474;-61
2021/11/19 06:20:24;;;;;;;8.67;6.07;;;11.40;1.00;;;;;;5049261;28;20960;-59
2021/11/19 06:22:53;;;;;;;9.20;6.67;;;11.40;1.00;;;;;;5049478;28;20965;-60
2021/11/19 06:25:23;;;;;;;9.10;7.27;;;11.50;1.00;;;;;;5049451;28;20450;-57
2021/11/19 06:27:50;;;;;;;11.57;7.30;;;;;;;;;;5049260;28;20983;-58
2021/11/19 06:30:17;;;;;;;11.87;7.30;;;11.60;1.00;;;;;;5049112;28;20438;-58
2021/11/19 06:32:44;;;;;;;7.50;6.17;;;;;;;;;;5054839;28;20416;-58
2021/11/19 06:35:10;;;;;;;10.03;8.13;;;11.70;1.00;;;;;;5048815;28;20474;-58
2021/11/19 06:37:36;;;;;;;9.10;6.60;;;;;;;;;;5049155;28;20442;-59
2021/11/19 06:40:09;;;;;;;9.90;7.20;;;11.60;1.00;;;;;;5047123;28;20451;-59
2021/11/19 06:42:35;;;;;;;8.90;7.00;;;;;;;;;;5048773;28;20456;-59
2021/11/19 06:45:01;;;;;;;12.33;7.40;;;;;;;;;;5049624;28;20446;-58
2021/11/19 06:47:27;;;;;;;8.73;6.93;;;11.50;1.00;;;;;;5048632;28;20490;-60
2021/11/19 06:49:52;;;;;;;8.83;6.70;;;;;;;;;;5052040;28;20426;-59
2021/11/19 06:52:19;;;;;;;7.77;6.27;;;;;;;;;;5049041;28;20542;-58
2021/11/19 06:54:45;;;;;;;9.00;7.10;;;;;;;;;;5048875;28;20990;-59
2021/11/19 06:57:11;;;;;;;12.00;7.87;;;11.60;1.00;;;;;;5048138;28;20447;-58
2021/11/19 06:59:38;;;;;;;10.43;7.20;;;11.70;1.00;;;;;;5055144;28;20892;-59
2021/11/19 07:02:06;;;;;;;8.00;6.50;;;11.70;1.00;;;;;;5049054;28;20443;-58
2021/11/19 07:04:32;;;;;;;8.53;7.30;;;;;;;;;;5061225;28;20417;-60
2021/11/19 07:06:59;;;;;;;7.10;6.40;;;;;;;;;;5052353;28;20452;-58
2021/11/19 07:09:26;;;;;;;9.63;7.83;;;;;;;;;;5054848;28;20797;-59
2021/11/19 07:11:52;;;;;;;12.50;7.63;;;;;;;;;;5048606;28;21108;-60
2021/11/19 07:14:18;;;;;;;8.50;7.60;;;;;;;;;;5047934;28;20450;-59
2021/11/19 07:16:44;;;;;;;9.27;7.13;;;11.90;1.00;;;;;;5049020;28;20443;-59
2021/11/19 07:19:10;;;;;;;7.90;6.93;;;11.70;1.00;;;;;;5049045;28;20450;-58
2021/11/19 07:21:38;;;;;;;8.37;6.50;;;11.70;1.00;;;;;;5048593;28;20439;-57
2021/11/19 07:24:05;;;;;;;8.33;6.47;;;11.60;1.00;;;;;;5047660;28;20461;-58
2021/11/19 07:26:30;;;;;;;9.90;7.80;;;11.70;1.00;;;;;;5048850;28;20946;-58
2021/11/19 07:28:57;;;;;;;7.60;6.70;;;11.60;1.00;;;;;;5049021;28;20439;-59
2021/11/19 07:31:23;;;;;;;8.03;6.43;;;;;;;;;;5047228;28;20184;-59
2021/11/19 07:33:49;;;;;;;9.90;7.50;;;;;;;;;;5056288;28;20444;-58
2021/11/19 07:36:18;;;;;;;6.90;5.63;;;11.60;1.00;;;;;;5048373;28;20450;-58
2021/11/19 07:38:44;;;;;;;7.00;6.30;;;11.50;1.00;;;;;;5049231;28;20443;-58
2021/11/19 07:41:12;;;;;;;8.53;6.70;;;11.30;1.00;;;;;;5051600;28;20458;-58
2021/11/19 07:43:40;;;;;;;7.10;6.40;;;11.50;1.00;;;;;;5052701;28;20425;-58
2021/11/19 07:46:07;;;;;;;7.27;6.17;;;11.50;1.00;;;;;;5053160;28;20478;-59
2021/11/19 07:48:34;;;;;;;8.47;6.60;;;11.50;1.00;;;;;;5051410;28;20439;-57
2021/11/19 07:51:03;;;;;;;7.73;6.70;;;;;;;;;;5057928;28;20437;-58
2021/11/19 07:53:29;;;;;;;6.90;6.13;;;11.40;1.00;;;;;;5061747;28;20445;-58
2021/11/19 07:55:56;;;;;;;9.60;7.13;;;11.50;1.00;;;;;;5059731;28;20438;-57
2021/11/19 07:58:24;;;;;;;7.10;6.40;;;12.10;1.00;;;;;;5051506;28;20446;-57
2021/11/19 08:00:50;;;;;;;6.80;6.17;;;11.50;1.00;;;;;;5059233;28;20446;-57
2021/11/19 08:03:16;;;;;;;7.53;5.60;;;11.70;1.00;;;;;;5065013;28;20446;-58
2021/11/19 08:05:46;;;;;;;8.33;5.83;;;11.70;1.00;;;;;;5051545;28;20209;-58
2021/11/19 08:08:12;;;;;;;8.80;6.30;;;11.80;1.00;;;;;;5056261;28;20499;-58
2021/11/19 08:10:38;;;;;;;9.80;6.20;;;11.60;1.00;;;;;;5051819;28;20454;-59
2021/11/19 08:13:04;;;;;;;6.97;6.00;;;11.20;1.00;;;;;;5062661;28;20451;-58
2021/11/19 08:15:33;;;;;;;7.67;6.03;;;11.80;1.00;;;;;;5052322;28;20227;-58
2021/11/19 08:18:00;;;;;;;6.80;6.20;;;11.80;1.00;;;;;;5051884;28;20486;-58
2021/11/19 08:20:41;;;;;;;6.80;5.60;;;11.50;1.00;;;;;;5050804;28;20512;-58
2021/11/19 08:23:09;;;;;;;7.67;5.90;;;11.70;1.00;;;;;;5051797;28;20427;-58
2021/11/19 08:25:37;;;;;;;7.90;5.77;;;11.70;1.00;;;;;;5050839;28;20602;-58
2021/11/19 08:28:05;;;;;;;6.50;5.77;;;11.80;1.00;;;;;;5049288;28;20534;-59
2021/11/19 08:30:38;;;;;;;6.70;5.10;;;11.70;1.00;;;;;;5052516;28;20758;-58
2021/11/19 08:33:06;;;;;;;5.30;4.80;;;12.20;1.00;;;;;;5051025;28;20446;-59
2021/11/19 08:35:34;;;;;;;7.60;5.40;;;;;;;;;;5050039;28;20442;-59
2021/11/19 08:38:00;;;;;;;5.87;4.90;;;;;;;;;;5051822;28;21005;-59
2021/11/19 08:40:27;;;;;;;5.90;4.90;;;;;;;;;;5051038;28;20860;-59
2021/11/19 08:42:53;;;;;;;5.83;5.23;;;;;;;;;;5051193;28;20772;-57
2021/11/19 08:45:22;;;;;;;9.30;5.40;;;12.20;1.00;;;;;;5050766;28;20440;-59
2021/11/19 08:47:50;;;;;;;7.33;5.03;;;12.00;1.00;;;;;;5051237;28;20793;-59
2021/11/19 08:50:21;;;;;;;5.97;5.37;;;12.10;1.00;;;;;;5050453;28;20443;-59
2021/11/19 08:52:47;;;;;;;5.47;4.80;;;;;;;;;;5051001;28;20434;-58
2021/11/19 08:55:14;;;;;;;6.50;5.23;;;;;;;;;;5053529;28;20454;-60
2021/11/19 08:57:40;;;;;;;6.97;5.03;;;12.00;1.00;;;;;;5051641;28;20949;-59
2021/11/19 09:00:13;;;;;;;5.90;5.30;;;12.20;1.00;;;;;;5051109;28;20496;-59
2021/11/19 09:02:39;;;;;;;5.30;4.50;;;;;;;;;;5050406;28;20914;-59
2021/11/19 09:05:07;;;;;;;6.20;4.80;;;12.50;1.00;;;;;;5050992;28;20522;-59
2021/11/19 09:07:36;;;;;;;5.57;4.80;;;12.30;1.00;;;;;;5051053;28;20475;-59
2021/11/19 09:10:07;;;;;;;4.60;4.20;;;12.10;1.00;;;;;;5050283;28;20446;-60
2021/11/19 09:12:33;;;;;;;6.90;5.27;;;;;;;;;;5049948;28;20405;-59
2021/11/19 09:15:00;;;;;;;4.50;4.07;;;;;;;;;;5050554;28;20458;-60
2021/11/19 09:17:28;;;;;;;5.30;4.83;;;;;;;;;;5052296;28;20446;-61
2021/11/19 09:19:58;;;;;;;5.07;4.00;;;12.10;1.00;;;;;;5050463;28;20446;-57
2021/11/19 09:22:27;;;;;;;4.93;4.37;;;;;;;;;;5050740;28;20451;-58
2021/11/19 09:24:53;;;;;;;5.43;4.83;;;12.20;1.00;;;;;;5055842;28;20584;-58
2021/11/19 09:27:20;;;;;;;7.50;5.40;;;12.10;1.00;;;;;;5049010;28;20763;-59
2021/11/19 09:29:57;;;;;;;5.00;4.30;;;12.00;1.00;;;;;;5049873;28;20840;-60
2021/11/19 09:32:24;;;;;;;4.57;3.50;;;12.10;1.00;;;;;;5050720;28;20446;-58
2021/11/19 09:34:54;;;;;;;4.07;3.70;;;12.30;1.00;;;;;;5054764;28;20442;-59
2021/11/19 09:37:21;;;;;;;3.40;3.10;;;12.30;1.00;;;;;;5067616;28;20441;-59
2021/11/19 09:39:49;;;;;;;4.97;3.70;;;12.80;1.00;;;;;;5052941;28;20425;-59
2021/11/19 09:42:51;;;;;;;4.40;3.67;;;12.40;1.00;;;;;;5050570;28;20505;-59
2021/11/19 09:45:36;;;;;;;4.53;3.60;;;;;;;;;;5053841;28;20445;-59
2021/11/19 09:48:35;;;;;;;4.07;3.47;;;12.30;1.00;;;;;;5069560;28;20466;-59
2021/11/19 09:51:06;;;;;;;4.77;3.57;;;12.60;1.00;;;;;;5058021;28;20424;-58
2021/11/19 09:53:59;;;;;;;2.83;2.63;;;12.20;1.00;;;;;;5048964;28;20422;-59
2021/11/19 09:56:49;;;;;;;5.30;3.60;;;12.30;1.00;;;;;;5048840;28;20454;-59
2021/11/19 09:59:40;;;;;;;5.63;3.30;;;12.30;1.00;;;;;;5049665;28;20471;-57
2021/11/19 10:02:42;;;;;;;3.27;2.77;;;12.30;1.00;;;;;;5050408;28;20450;-58
2021/11/19 10:05:45;;;;;;;3.53;3.23;;;12.20;1.00;;;;;;5048107;28;20497;-59
2021/11/19 10:08:48;;;;;;;2.93;2.50;;;12.20;1.00;;;;;;5049258;28;20446;-59
2021/11/19 10:11:38;;;;;;;4.00;2.80;;;12.20;1.00;;;;;;5027235;28;20458;-59
2021/11/19 10:14:34;;;;;;;3.30;3.00;;;12.10;1.00;;;;;;5048349;28;20479;-58
2021/11/19 10:17:22;;;;;;;3.47;3.17;;;12.10;1.00;;;;;;5049516;28;20530;-59
2021/11/19 10:19:57;;;;;;;3.60;3.30;;;12.30;1.00;;;;;;5049432;28;20439;-58
2021/11/19 10:22:27;;;;;;;4.30;2.53;;;;;;;;;;5048146;28;20500;-59
2021/11/19 10:24:56;;;;;;;3.53;3.00;;;12.40;1.00;;;;;;5049661;28;20438;-60
2021/11/19 10:27:31;;;;;;;3.53;3.07;;;12.40;1.00;;;;;;5049458;28;20480;-58
2021/11/19 10:30:10;;;;;;;3.40;3.00;;;12.40;1.00;;;;;;5049332;28;20435;-58
2021/11/19 10:32:38;;;;;;;4.60;4.10;;;12.40;1.00;;;;;;5047203;28;20449;-59
2021/11/19 10:35:26;;;;;;;5.17;4.17;;;12.40;1.00;;;;;;5048846;28;20474;-58
2021/11/19 10:38:29;;;;;;;4.60;3.30;;;;;;;;;;5049847;28;20431;-59
2021/11/19 10:41:17;;;;;;;9.13;3.90;;;;;;;;;;5049739;28;20456;-59
2021/11/19 10:44:18;;;;;;;3.33;2.87;;;12.20;1.00;;;;;;5049496;28;20446;-59
2021/11/19 10:47:10;;;;;;;4.37;3.50;;;12.20;1.00;;;;;;5027140;28;20915;-59
2021/11/19 10:49:49;;;;;;;6.17;3.77;;;12.30;1.00;;;;;;5049161;28;20450;-59
2021/11/19 10:52:48;;;;;;;6.50;3.40;;;12.20;1.00;;;;;;5050124;28;20434;-60
2021/11/19 10:55:38;;;;;;;3.23;2.97;;;12.30;1.00;;;;;;5049262;28;20534;-60
2021/11/19 10:58:32;;;;;;;3.70;3.13;;;12.30;1.00;;;;;;5047634;28;20496;-56
2021/11/19 11:00:58;;;;;;;4.03;3.00;;;12.20;1.00;;;;;;5049557;28;20454;-57
2021/11/19 11:03:32;;;;;;;3.40;2.97;;;12.20;1.00;;;;;;5051413;28;20435;-56
2021/11/19 11:06:07;;;;;;;4.63;3.53;;;12.20;1.00;;;;;;5049081;28;20204;-57
2021/11/19 11:08:36;;;;;;;7.83;2.97;;;12.20;1.00;;;;;;5049242;28;20473;-55
2021/11/19 11:11:10;;;;;;;3.97;3.00;;;12.20;1.00;;;;;;5049433;28;20797;-57
2021/11/19 11:14:03;;;;;;;3.90;2.70;;;12.30;1.00;;;;;;5048583;28;20434;-55
2021/11/19 11:16:40;;;;;;;3.40;2.80;;;12.10;1.00;;;;;;5053542;28;20438;-54
2021/11/19 11:19:18;;;;;;;3.63;2.70;;;12.30;1.00;;;;;;5053450;28;20435;-56
2021/11/19 11:21:49;;;;;;;3.30;2.83;;;12.40;1.00;;;;;;5053229;28;20434;-56
2021/11/19 11:24:27;;;;;;;3.27;2.63;;;12.30;1.00;;;;;;5053030;28;20504;-55
2021/11/19 11:27:19;;;;;;;5.27;3.20;;;12.60;1.00;;;;;;5052440;28;20989;-56
2021/11/19 11:29:54;;;;;;;6.43;2.80;;;12.30;1.00;;;;;;5052288;28;20851;-55
2021/11/19 11:32:31;;;;;;;4.70;3.33;;;12.30;1.00;;;;;;5052476;28;20449;-55
2021/11/19 11:35:15;;;;;;;3.27;2.63;;;12.20;1.00;;;;;;5052225;28;20409;-54
2021/11/19 11:38:07;;;;;;;3.20;2.63;;;12.10;1.00;;;;;;5052387;28;21224;-56
2021/11/19 11:41:05;;;;;;;5.90;2.60;;;12.20;1.00;;;;;;5052793;28;20454;-55
2021/11/19 11:43:33;;;;;;;3.00;2.30;;;12.30;1.00;;;;;;5051049;28;20466;-55
2021/11/19 11:46:24;;;;;;;3.10;2.63;;;12.30;1.00;;;;;;5052357;28;20441;-56
2021/11/19 11:49:01;;;;;;;3.10;2.63;;;12.40;1.00;;;;;;5052481;28;20439;-57
2021/11/19 11:51:37;;;;;;;3.00;2.07;;;12.40;1.00;;;;;;5050650;28;20465;-56
2021/11/19 11:54:24;;;;;;;2.60;2.40;;;12.40;1.00;;;;;;5065958;28;20444;-57
2021/11/19 11:57:14;;;;;;;4.50;2.60;;;12.20;1.00;;;;;;5050617;28;20427;-56
2021/11/19 11:59:55;;;;;;;3.97;2.50;;;12.00;1.00;;;;;;5052305;28;20493;-56
2021/11/19 12:02:27;;;;;;;2.07;1.97;;;;;;;;;;5051721;28;20536;-56
2021/11/19 12:04:54;;;;;;;3.57;2.20;;;;;;;;;;5052944;28;20439;-57
2021/11/19 12:08:05;;;;;;;3.10;2.10;;;12.40;1.00;;;;;;5051287;28;20549;-55
2021/11/19 12:10:37;;;;;;;2.13;1.93;;;12.20;1.00;;;;;;5052194;28;20831;-56
2021/11/19 12:13:10;;;;;;;2.07;1.87;;;;;;;;;;5061471;28;20435;-56
2021/11/19 12:15:43;;;;;;;4.13;2.60;;;12.20;1.00;;;;;;5053178;28;20503;-55
2021/11/19 12:18:46;;;;;;;2.73;2.10;;;12.30;1.00;;;;;;5051467;28;20475;-56
2021/11/19 12:21:55;;;;;;;4.00;2.13;;;12.30;1.00;;;;;;5050928;28;20859;-54
2021/11/19 12:24:27;;;;;;;2.70;2.50;;;12.30;1.00;;;;;;5057492;28;20427;-55
2021/11/19 12:27:03;;;;;;;2.70;2.00;;;12.40;1.00;;;;;;5063622;28;20551;-55
2021/11/19 12:29:41;;;;;;;2.10;1.67;;;12.40;1.00;;;;;;5052091;28;20763;-55
2021/11/19 12:32:45;;;;;;;2.70;2.30;;;13.00;1.00;;;;;;5052127;28;20409;-56
2021/11/19 12:35:26;;;;;;;3.13;2.50;;;12.50;1.00;;;;;;5038970;28;20589;-55
2021/11/19 12:37:52;;;;;;;3.50;2.40;;;;;;;;;;5051564;28;20455;-56
2021/11/19 12:40:45;;;;;;;3.60;2.10;;;12.50;1.00;;;;;;5051558;28;20500;-55
2021/11/19 12:43:37;;;;;;;2.23;1.63;;;12.50;1.00;;;;;;5048273;28;20457;-56
2021/11/19 12:46:18;;;;;;;2.43;1.77;;;12.40;1.00;;;;;;5051710;28;20501;-55
2021/11/19 12:49:18;;;;;;;2.53;2.33;;;12.50;1.00;;;;;;5051490;28;20871;-56
2021/11/19 12:52:08;;;;;;;2.00;1.90;;;12.40;1.00;;;;;;5050141;28;20446;-55
2021/11/19 12:55:09;;;;;;;6.13;1.90;;;12.30;1.00;;;;;;5050117;28;20431;-56
2021/11/19 12:58:03;;;;;;;2.07;1.90;;;12.20;1.00;;;;;;5043005;28;20416;-56
2021/11/19 13:01:12;;;;;;;3.70;2.23;;;12.20;1.00;;;;;;5051107;28;20939;-57
2021/11/19 13:03:49;;;;;;;2.73;1.80;;;12.10;1.00;;;;;;5049622;28;20463;-56
2021/11/19 13:06:36;;;;;;;3.13;2.00;;;12.50;1.00;;;;;;5050740;28;20462;-55
2021/11/19 13:09:14;;;;;;;2.50;2.10;;;12.60;1.00;;;;;;5050992;28;20480;-56
2021/11/19 13:11:58;;;;;;;2.63;1.80;;;12.50;1.00;;;;;;5050255;28;20793;-56
2021/11/19 13:14:30;;;;;;;4.50;2.47;;;12.50;1.00;;;;;;5054158;28;20434;-55
2021/11/19 13:17:11;;;;;;;2.03;1.83;;;12.40;1.00;;;;;;5052659;28;20572;-57
2021/11/19 13:19:40;;;;;;;3.47;2.13;;;;;;;;;;5050624;28;20424;-55
2021/11/19 13:22:21;;;;;;;2.10;1.90;;;12.40;1.00;;;;;;5050430;28;20450;-55
2021/11/19 13:24:57;;;;;;;3.37;2.17;;;12.10;1.00;;;;;;5050552;28;20778;-56
2021/11/19 13:27:40;;;;;;;4.50;2.27;;;;;;;;;;5056831;28;20583;-56
2021/11/19 13:30:32;;;;;;;2.70;2.40;;;12.40;1.00;;;;;;5054335;28;20458;-56
2021/11/19 13:33:11;;;;;;;2.47;2.10;;;12.50;1.00;;;;;;5047507;28;20459;-55
2021/11/19 13:35:45;;;;;;;4.70;2.40;;;12.40;1.00;;;;;;5049924;28;20420;-57
2021/11/19 13:38:15;;;;;;;2.90;2.67;;;;;;;;;;5050259;28;20923;-55
2021/11/19 13:40:46;;;;;;;2.23;2.03;;;12.50;1.00;;;;;;5064030;28;20458;-56
2021/11/19 13:43:13;;;;;;;2.97;2.30;;;;;;;;;;5048951;28;20426;-57
2021/11/19 13:45:38;;;;;;;2.50;1.90;;;12.10;1.00;;;;;;5048542;28;20991;-55
2021/11/19 13:48:23;;;;;;;2.73;2.00;;;;;;;;;;5048491;28;20558;-54